sensor_id;sensor_type;location;lat;lon;timestamp;P1;durP1;ratioP1;P2;durP2;ratioP2
57565;SDS011;63999;43.882;-0.310;2024-03-23T00:53:54;0.85;;;0.65;;
57565;SDS011;63999;43.882;-0.310;2024-03-23T00:56:20;2.10;;;0.60;;
57565;SDS011;63999;43.882;-0.310;2024-03-23T00:58:46;0.50;;;0.35;;
57565;SDS011;63999;43.882;-0.310;2024-03-23T01:01:12;3.50;;;0.40;;
57565;SDS011;63999;43.882;-0.310;2024-03-23T01:03:38;2.47;;;0.98;;
57565;SDS011;63999;43.882;-0.310;2024-03-23T01:06:04;1.10;;;0.68;;
57565;SDS011;63999;43.882;-0.310;2024-03-23T01:08:30;0.50;;;0.45;;
57565;SDS011;63999;43.882;-0.310;2024-03-23T01:10:56;0.90;;;0.52;;
57565;SDS011;63999;43.882;-0.310;2024-03-23T01:13:24;1.88;;;0.80;;
57565;SDS011;63999;43.882;-0.310;2024-03-23T01:15:53;0.82;;;0.70;;
57565;SDS011;63999;43.882;-0.310;2024-03-23T01:18:20;4.90;;;0.70;;
57565;SDS011;63999;43.882;-0.310;2024-03-23T01:20:47;1.83;;;0.73;;
57565;SDS011;63999;43.882;-0.310;2024-03-23T01:23:13;2.00;;;0.50;;
57565;SDS011;63999;43.882;-0.310;2024-03-23T01:25:39;0.95;;;0.80;;
57565;SDS011;63999;43.882;-0.310;2024-03-23T01:28:06;4.10;;;0.50;;
57565;SDS011;63999;43.882;-0.310;2024-03-23T01:30:35;1.52;;;0.70;;
57565;SDS011;63999;43.882;-0.310;2024-03-23T01:33:01;0.47;;;0.43;;
57565;SDS011;63999;43.882;-0.310;2024-03-23T01:35:30;2.97;;;0.65;;
57565;SDS011;63999;43.882;-0.310;2024-03-23T01:37:56;0.93;;;0.60;;
57565;SDS011;63999;43.882;-0.310;2024-03-23T01:40:22;0.60;;;0.55;;
57565;SDS011;63999;43.882;-0.310;2024-03-23T01:42:55;1.92;;;0.60;;
57565;SDS011;63999;43.882;-0.310;2024-03-23T01:45:21;0.40;;;0.40;;
57565;SDS011;63999;43.882;-0.310;2024-03-23T01:47:49;1.00;;;0.70;;
57565;SDS011;63999;43.882;-0.310;2024-03-23T01:50:18;1.75;;;0.80;;
57565;SDS011;63999;43.882;-0.310;2024-03-23T01:52:46;1.92;;;0.45;;
57565;SDS011;63999;43.882;-0.310;2024-03-23T01:55:12;1.00;;;0.40;;
57565;SDS011;63999;43.882;-0.310;2024-03-23T01:57:38;1.63;;;0.90;;
57565;SDS011;63999;43.882;-0.310;2024-03-23T02:00:05;4.28;;;0.63;;
57565;SDS011;63999;43.882;-0.310;2024-03-23T02:02:31;4.53;;;0.63;;
57565;SDS011;63999;43.882;-0.310;2024-03-23T02:04:57;0.75;;;0.60;;
57565;SDS011;63999;43.882;-0.310;2024-03-23T02:07:24;0.82;;;0.70;;
57565;SDS011;63999;43.882;-0.310;2024-03-23T02:09:50;2.00;;;0.32;;
57565;SDS011;63999;43.882;-0.310;2024-03-23T02:12:17;2.40;;;0.45;;
57565;SDS011;63999;43.882;-0.310;2024-03-23T02:14:43;0.63;;;0.50;;
57565;SDS011;63999;43.882;-0.310;2024-03-23T02:17:09;0.75;;;0.60;;
57565;SDS011;63999;43.882;-0.310;2024-03-23T02:19:35;0.80;;;0.52;;
57565;SDS011;63999;43.882;-0.310;2024-03-23T02:22:02;1.63;;;0.50;;
57565;SDS011;63999;43.882;-0.310;2024-03-23T02:24:29;2.10;;;0.80;;
57565;SDS011;63999;43.882;-0.310;2024-03-23T02:26:55;1.88;;;1.00;;
57565;SDS011;63999;43.882;-0.310;2024-03-23T02:29:21;0.70;;;0.70;;
57565;SDS011;63999;43.882;-0.310;2024-03-23T02:31:47;1.95;;;0.80;;
57565;SDS011;63999;43.882;-0.310;2024-03-23T02:34:13;0.52;;;0.47;;
57565;SDS011;63999;43.882;-0.310;2024-03-23T02:36:40;1.25;;;0.47;;
57565;SDS011;63999;43.882;-0.310;2024-03-23T02:39:06;1.27;;;0.82;;
57565;SDS011;63999;43.882;-0.310;2024-03-23T02:41:32;0.43;;;0.20;;
57565;SDS011;63999;43.882;-0.310;2024-03-23T02:44:01;0.85;;;0.45;;
57565;SDS011;63999;43.882;-0.310;2024-03-23T02:46:27;0.55;;;0.50;;
57565;SDS011;63999;43.882;-0.310;2024-03-23T02:48:53;0.93;;;0.40;;
57565;SDS011;63999;43.882;-0.310;2024-03-23T02:51:19;1.45;;;0.60;;
57565;SDS011;63999;43.882;-0.310;2024-03-23T02:53:45;1.13;;;0.60;;
57565;SDS011;63999;43.882;-0.310;2024-03-23T02:56:11;1.45;;;0.55;;
57565;SDS011;63999;43.882;-0.310;2024-03-23T02:58:42;2.92;;;0.70;;
57565;SDS011;63999;43.882;-0.310;2024-03-23T03:01:08;1.02;;;0.75;;
57565;SDS011;63999;43.882;-0.310;2024-03-23T03:03:34;1.52;;;0.40;;
57565;SDS011;63999;43.882;-0.310;2024-03-23T03:06:00;0.82;;;0.47;;
57565;SDS011;63999;43.882;-0.310;2024-03-23T03:08:26;4.50;;;1.23;;
57565;SDS011;63999;43.882;-0.310;2024-03-23T03:10:52;1.08;;;0.70;;
57565;SDS011;63999;43.882;-0.310;2024-03-23T03:13:18;1.77;;;0.55;;
57565;SDS011;63999;43.882;-0.310;2024-03-23T03:15:44;2.15;;;0.70;;
57565;SDS011;63999;43.882;-0.310;2024-03-23T03:18:10;0.45;;;0.30;;
57565;SDS011;63999;43.882;-0.310;2024-03-23T03:20:39;0.50;;;0.35;;
57565;SDS011;63999;43.882;-0.310;2024-03-23T03:23:06;0.60;;;0.55;;
57565;SDS011;63999;43.882;-0.310;2024-03-23T03:25:33;0.63;;;0.60;;
57565;SDS011;63999;43.882;-0.310;2024-03-23T03:27:59;1.08;;;0.77;;
57565;SDS011;63999;43.882;-0.310;2024-03-23T03:30:25;0.75;;;0.57;;
57565;SDS011;63999;43.882;-0.310;2024-03-23T03:32:54;0.40;;;0.38;;
57565;SDS011;63999;43.882;-0.310;2024-03-23T03:35:21;1.00;;;0.80;;
57565;SDS011;63999;43.882;-0.310;2024-03-23T03:37:47;0.95;;;0.77;;
57565;SDS011;63999;43.882;-0.310;2024-03-23T03:40:13;1.63;;;1.10;;
57565;SDS011;63999;43.882;-0.310;2024-03-23T03:42:40;1.35;;;0.85;;
57565;SDS011;63999;43.882;-0.310;2024-03-23T03:45:07;2.40;;;1.05;;
57565;SDS011;63999;43.882;-0.310;2024-03-23T03:47:33;4.03;;;0.95;;
57565;SDS011;63999;43.882;-0.310;2024-03-23T03:49:59;2.67;;;1.00;;
57565;SDS011;63999;43.882;-0.310;2024-03-23T03:52:25;1.98;;;1.02;;
57565;SDS011;63999;43.882;-0.310;2024-03-23T03:54:51;2.60;;;0.77;;
57565;SDS011;63999;43.882;-0.310;2024-03-23T03:57:21;3.13;;;0.75;;
57565;SDS011;63999;43.882;-0.310;2024-03-23T03:59:47;3.97;;;1.40;;
57565;SDS011;63999;43.882;-0.310;2024-03-23T04:02:13;4.38;;;1.80;;
57565;SDS011;63999;43.882;-0.310;2024-03-23T04:04:39;2.55;;;1.25;;
57565;SDS011;63999;43.882;-0.310;2024-03-23T04:07:05;5.40;;;1.30;;
57565;SDS011;63999;43.882;-0.310;2024-03-23T04:09:31;3.10;;;1.17;;
57565;SDS011;63999;43.882;-0.310;2024-03-23T04:11:57;1.80;;;1.02;;
57565;SDS011;63999;43.882;-0.310;2024-03-23T04:14:23;3.63;;;1.65;;
57565;SDS011;63999;43.882;-0.310;2024-03-23T04:16:49;5.22;;;1.30;;
57565;SDS011;63999;43.882;-0.310;2024-03-23T04:19:15;4.03;;;1.83;;
57565;SDS011;63999;43.882;-0.310;2024-03-23T04:21:41;5.55;;;1.65;;
57565;SDS011;63999;43.882;-0.310;2024-03-23T04:24:08;5.05;;;1.80;;
57565;SDS011;63999;43.882;-0.310;2024-03-23T04:26:43;5.15;;;2.05;;
57565;SDS011;63999;43.882;-0.310;2024-03-23T04:29:09;5.28;;;1.80;;
57565;SDS011;63999;43.882;-0.310;2024-03-23T04:31:35;3.13;;;1.38;;
57565;SDS011;63999;43.882;-0.310;2024-03-23T04:34:01;2.03;;;0.70;;
57565;SDS011;63999;43.882;-0.310;2024-03-23T04:36:27;1.30;;;0.30;;
57565;SDS011;63999;43.882;-0.310;2024-03-23T04:38:53;4.78;;;0.55;;
57565;SDS011;63999;43.882;-0.310;2024-03-23T04:41:20;0.28;;;0.25;;
57565;SDS011;63999;43.882;-0.310;2024-03-23T04:43:46;0.10;;;0.10;;
57565;SDS011;63999;43.882;-0.310;2024-03-23T04:46:12;0.10;;;0.10;;
57565;SDS011;63999;43.882;-0.310;2024-03-23T04:48:38;0.03;;;0.03;;
57565;SDS011;63999;43.882;-0.310;2024-03-23T04:51:04;0.30;;;0.20;;
57565;SDS011;63999;43.882;-0.310;2024-03-23T04:53:30;0.35;;;0.10;;
57565;SDS011;63999;43.882;-0.310;2024-03-23T04:55:56;1.02;;;0.50;;
57565;SDS011;63999;43.882;-0.310;2024-03-23T04:58:24;2.65;;;0.38;;
57565;SDS011;63999;43.882;-0.310;2024-03-23T05:00:54;0.22;;;0.17;;
57565;SDS011;63999;43.882;-0.310;2024-03-23T05:03:21;0.00;;;0.00;;
57565;SDS011;63999;43.882;-0.310;2024-03-23T05:05:48;0.38;;;0.10;;
57565;SDS011;63999;43.882;-0.310;2024-03-23T05:08:14;0.20;;;0.20;;
57565;SDS011;63999;43.882;-0.310;2024-03-23T05:10:43;0.08;;;0.08;;
57565;SDS011;63999;43.882;-0.310;2024-03-23T05:13:10;0.20;;;0.20;;
57565;SDS011;63999;43.882;-0.310;2024-03-23T05:15:36;0.20;;;0.20;;
57565;SDS011;63999;43.882;-0.310;2024-03-23T05:18:02;1.70;;;0.22;;
57565;SDS011;63999;43.882;-0.310;2024-03-23T05:20:28;0.20;;;0.15;;
57565;SDS011;63999;43.882;-0.310;2024-03-23T05:22:55;0.25;;;0.10;;
57565;SDS011;63999;43.882;-0.310;2024-03-23T05:25:21;0.10;;;0.10;;
57565;SDS011;63999;43.882;-0.310;2024-03-23T05:27:47;0.10;;;0.10;;
57565;SDS011;63999;43.882;-0.310;2024-03-23T05:30:13;0.28;;;0.20;;
57565;SDS011;63999;43.882;-0.310;2024-03-23T05:32:39;0.38;;;0.38;;
57565;SDS011;63999;43.882;-0.310;2024-03-23T05:35:07;0.60;;;0.20;;
57565;SDS011;63999;43.882;-0.310;2024-03-23T05:37:34;1.63;;;0.10;;
57565;SDS011;63999;43.882;-0.310;2024-03-23T05:40:00;4.95;;;0.60;;
57565;SDS011;63999;43.882;-0.310;2024-03-23T05:42:27;1.52;;;0.40;;
57565;SDS011;63999;43.882;-0.310;2024-03-23T05:44:53;0.75;;;0.40;;
57565;SDS011;63999;43.882;-0.310;2024-03-23T05:47:19;0.17;;;0.17;;
57565;SDS011;63999;43.882;-0.310;2024-03-23T05:49:46;1.27;;;0.28;;
57565;SDS011;63999;43.882;-0.310;2024-03-23T05:52:12;0.63;;;0.40;;
57565;SDS011;63999;43.882;-0.310;2024-03-23T05:54:39;0.25;;;0.20;;
57565;SDS011;63999;43.882;-0.310;2024-03-23T05:57:05;0.32;;;0.15;;
57565;SDS011;63999;43.882;-0.310;2024-03-23T05:59:33;0.82;;;0.22;;
57565;SDS011;63999;43.882;-0.310;2024-03-23T06:01:59;1.45;;;0.10;;
57565;SDS011;63999;43.882;-0.310;2024-03-23T06:04:25;2.33;;;0.20;;
57565;SDS011;63999;43.882;-0.310;2024-03-23T06:06:52;1.55;;;0.32;;
57565;SDS011;63999;43.882;-0.310;2024-03-23T06:09:18;1.33;;;0.47;;
57565;SDS011;63999;43.882;-0.310;2024-03-23T06:11:45;0.65;;;0.22;;
57565;SDS011;63999;43.882;-0.310;2024-03-23T06:14:11;1.92;;;0.25;;
57565;SDS011;63999;43.882;-0.310;2024-03-23T06:16:37;2.53;;;0.15;;
57565;SDS011;63999;43.882;-0.310;2024-03-23T06:19:03;0.60;;;0.20;;
57565;SDS011;63999;43.882;-0.310;2024-03-23T06:21:32;2.10;;;0.20;;
57565;SDS011;63999;43.882;-0.310;2024-03-23T06:23:58;2.30;;;0.30;;
57565;SDS011;63999;43.882;-0.310;2024-03-23T06:26:24;2.05;;;0.68;;
57565;SDS011;63999;43.882;-0.310;2024-03-23T06:28:50;0.45;;;0.25;;
57565;SDS011;63999;43.882;-0.310;2024-03-23T06:31:16;1.42;;;0.50;;
57565;SDS011;63999;43.882;-0.310;2024-03-23T06:33:43;0.63;;;0.20;;
57565;SDS011;63999;43.882;-0.310;2024-03-23T06:36:09;2.72;;;0.52;;
57565;SDS011;63999;43.882;-0.310;2024-03-23T06:38:36;2.10;;;0.25;;
57565;SDS011;63999;43.882;-0.310;2024-03-23T06:41:05;2.08;;;0.30;;
57565;SDS011;63999;43.882;-0.310;2024-03-23T06:43:32;0.95;;;0.30;;
57565;SDS011;63999;43.882;-0.310;2024-03-23T06:45:58;0.32;;;0.30;;
57565;SDS011;63999;43.882;-0.310;2024-03-23T06:48:24;2.88;;;0.40;;
57565;SDS011;63999;43.882;-0.310;2024-03-23T06:50:54;1.60;;;0.30;;
57565;SDS011;63999;43.882;-0.310;2024-03-23T06:53:24;0.28;;;0.15;;
57565;SDS011;63999;43.882;-0.310;2024-03-23T06:55:51;2.60;;;0.30;;
57565;SDS011;63999;43.882;-0.310;2024-03-23T06:58:21;0.55;;;0.30;;
57565;SDS011;63999;43.882;-0.310;2024-03-23T07:00:49;6.43;;;0.47;;
57565;SDS011;63999;43.882;-0.310;2024-03-23T07:03:16;1.88;;;0.57;;
57565;SDS011;63999;43.882;-0.310;2024-03-23T07:05:43;1.02;;;0.45;;
57565;SDS011;63999;43.882;-0.310;2024-03-23T07:08:09;0.88;;;0.43;;
57565;SDS011;63999;43.882;-0.310;2024-03-23T07:10:35;1.55;;;0.38;;
57565;SDS011;63999;43.882;-0.310;2024-03-23T07:13:05;2.78;;;0.47;;
57565;SDS011;63999;43.882;-0.310;2024-03-23T07:15:31;0.20;;;0.20;;
57565;SDS011;63999;43.882;-0.310;2024-03-23T07:17:57;1.05;;;0.43;;
57565;SDS011;63999;43.882;-0.310;2024-03-23T07:20:23;1.35;;;0.32;;
57565;SDS011;63999;43.882;-0.310;2024-03-23T07:22:49;0.90;;;0.20;;
57565;SDS011;63999;43.882;-0.310;2024-03-23T07:25:15;2.25;;;0.30;;
57565;SDS011;63999;43.882;-0.310;2024-03-23T07:27:42;1.20;;;0.35;;
57565;SDS011;63999;43.882;-0.310;2024-03-23T07:30:08;1.45;;;0.40;;
57565;SDS011;63999;43.882;-0.310;2024-03-23T07:32:35;0.95;;;0.52;;
57565;SDS011;63999;43.882;-0.310;2024-03-23T07:35:01;0.75;;;0.35;;
57565;SDS011;63999;43.882;-0.310;2024-03-23T07:37:27;0.55;;;0.20;;
57565;SDS011;63999;43.882;-0.310;2024-03-23T07:39:54;0.25;;;0.10;;
57565;SDS011;63999;43.882;-0.310;2024-03-23T07:42:20;1.33;;;0.38;;
57565;SDS011;63999;43.882;-0.310;2024-03-23T07:44:46;0.20;;;0.10;;
57565;SDS011;63999;43.882;-0.310;2024-03-23T07:47:13;2.97;;;0.30;;
57565;SDS011;63999;43.882;-0.310;2024-03-23T07:49:39;0.98;;;0.30;;
57565;SDS011;63999;43.882;-0.310;2024-03-23T07:52:05;0.60;;;0.20;;
57565;SDS011;63999;43.882;-0.310;2024-03-23T07:57:07;1.38;;;0.38;;
57565;SDS011;63999;43.882;-0.310;2024-03-23T07:59:33;1.98;;;0.40;;
57565;SDS011;63999;43.882;-0.310;2024-03-23T08:01:59;1.40;;;0.47;;
57565;SDS011;63999;43.882;-0.310;2024-03-23T08:04:26;0.63;;;0.25;;
57565;SDS011;63999;43.882;-0.310;2024-03-23T08:10:34;2.72;;;0.25;;
57565;SDS011;63999;43.882;-0.310;2024-03-23T08:13:00;0.25;;;0.20;;
57565;SDS011;63999;43.882;-0.310;2024-03-23T08:15:26;0.50;;;0.13;;
57565;SDS011;63999;43.882;-0.310;2024-03-23T08:17:52;0.25;;;0.20;;
57565;SDS011;63999;43.882;-0.310;2024-03-23T08:20:18;0.20;;;0.10;;
57565;SDS011;63999;43.882;-0.310;2024-03-23T08:22:44;1.27;;;0.20;;
57565;SDS011;63999;43.882;-0.310;2024-03-23T08:25:10;0.40;;;0.22;;
57565;SDS011;63999;43.882;-0.310;2024-03-23T08:27:36;1.70;;;0.50;;
57565;SDS011;63999;43.882;-0.310;2024-03-23T08:30:02;2.22;;;0.30;;
57565;SDS011;63999;43.882;-0.310;2024-03-23T08:32:28;1.15;;;0.20;;
57565;SDS011;63999;43.882;-0.310;2024-03-23T08:34:54;0.43;;;0.30;;
57565;SDS011;63999;43.882;-0.310;2024-03-23T08:37:20;0.15;;;0.15;;
57565;SDS011;63999;43.882;-0.310;2024-03-23T08:39:46;0.10;;;0.10;;
57565;SDS011;63999;43.882;-0.310;2024-03-23T08:42:18;1.30;;;0.30;;
57565;SDS011;63999;43.882;-0.310;2024-03-23T08:47:17;3.42;;;0.32;;
57565;SDS011;63999;43.882;-0.310;2024-03-23T08:49:44;0.32;;;0.30;;
57565;SDS011;63999;43.882;-0.310;2024-03-23T08:52:10;0.85;;;0.63;;
57565;SDS011;63999;43.882;-0.310;2024-03-23T08:54:36;0.00;;;0.00;;
57565;SDS011;63999;43.882;-0.310;2024-03-23T08:57:02;2.55;;;0.25;;
57565;SDS011;63999;43.882;-0.310;2024-03-23T08:59:28;3.47;;;0.32;;
57565;SDS011;63999;43.882;-0.310;2024-03-23T09:01:54;2.75;;;0.30;;
57565;SDS011;63999;43.882;-0.310;2024-03-23T09:04:21;0.85;;;0.20;;
57565;SDS011;63999;43.882;-0.310;2024-03-23T09:06:47;2.70;;;0.30;;
57565;SDS011;63999;43.882;-0.310;2024-03-23T09:09:13;2.00;;;0.85;;
57565;SDS011;63999;43.882;-0.310;2024-03-23T09:11:39;0.47;;;0.28;;
57565;SDS011;63999;43.882;-0.310;2024-03-23T09:14:05;3.25;;;0.85;;
57565;SDS011;63999;43.882;-0.310;2024-03-23T09:16:31;0.98;;;0.35;;
57565;SDS011;63999;43.882;-0.310;2024-03-23T09:18:57;0.80;;;0.57;;
57565;SDS011;63999;43.882;-0.310;2024-03-23T09:21:23;0.13;;;0.10;;
57565;SDS011;63999;43.882;-0.310;2024-03-23T09:23:49;1.23;;;0.15;;
57565;SDS011;63999;43.882;-0.310;2024-03-23T09:26:15;1.45;;;0.30;;
57565;SDS011;63999;43.882;-0.310;2024-03-23T09:28:41;4.25;;;0.50;;
57565;SDS011;63999;43.882;-0.310;2024-03-23T09:31:08;0.52;;;0.38;;
57565;SDS011;63999;43.882;-0.310;2024-03-23T09:33:40;6.68;;;0.98;;
57565;SDS011;63999;43.882;-0.310;2024-03-23T09:36:06;2.85;;;0.57;;
57565;SDS011;63999;43.882;-0.310;2024-03-23T09:38:34;1.23;;;0.35;;
57565;SDS011;63999;43.882;-0.310;2024-03-23T09:41:00;0.60;;;0.17;;
57565;SDS011;63999;43.882;-0.310;2024-03-23T09:43:32;1.25;;;0.20;;
57565;SDS011;63999;43.882;-0.310;2024-03-23T09:45:58;5.38;;;0.43;;
57565;SDS011;63999;43.882;-0.310;2024-03-23T09:48:24;1.20;;;0.40;;
57565;SDS011;63999;43.882;-0.310;2024-03-23T09:50:50;1.65;;;0.68;;
57565;SDS011;63999;43.882;-0.310;2024-03-23T09:53:16;0.40;;;0.28;;
57565;SDS011;63999;43.882;-0.310;2024-03-23T09:55:43;1.77;;;0.60;;
57565;SDS011;63999;43.882;-0.310;2024-03-23T09:58:14;0.40;;;0.15;;
57565;SDS011;63999;43.882;-0.310;2024-03-23T10:00:41;1.45;;;0.65;;
57565;SDS011;63999;43.882;-0.310;2024-03-23T10:03:08;0.65;;;0.30;;
57565;SDS011;63999;43.882;-0.310;2024-03-23T10:05:36;0.20;;;0.10;;
57565;SDS011;63999;43.882;-0.310;2024-03-23T10:10:41;2.70;;;0.73;;
57565;SDS011;63999;43.882;-0.310;2024-03-23T10:13:07;0.40;;;0.22;;
57565;SDS011;63999;43.882;-0.310;2024-03-23T10:15:34;1.45;;;0.20;;
57565;SDS011;63999;43.882;-0.310;2024-03-23T10:18:20;1.60;;;0.30;;
57565;SDS011;63999;43.882;-0.310;2024-03-23T10:20:51;2.22;;;0.30;;
57565;SDS011;63999;43.882;-0.310;2024-03-23T10:23:18;2.80;;;0.20;;
57565;SDS011;63999;43.882;-0.310;2024-03-23T10:25:44;2.92;;;0.40;;
57565;SDS011;63999;43.882;-0.310;2024-03-23T10:28:13;0.13;;;0.10;;
57565;SDS011;63999;43.882;-0.310;2024-03-23T10:30:39;1.48;;;0.47;;
57565;SDS011;63999;43.882;-0.310;2024-03-23T10:33:09;0.52;;;0.10;;
57565;SDS011;63999;43.882;-0.310;2024-03-23T10:35:36;0.45;;;0.32;;
57565;SDS011;63999;43.882;-0.310;2024-03-23T10:38:04;1.38;;;0.30;;
57565;SDS011;63999;43.882;-0.310;2024-03-23T10:40:34;1.05;;;0.32;;
57565;SDS011;63999;43.882;-0.310;2024-03-23T10:43:05;2.00;;;0.47;;
57565;SDS011;63999;43.882;-0.310;2024-03-23T10:45:33;1.95;;;0.47;;
57565;SDS011;63999;43.882;-0.310;2024-03-23T10:47:59;0.50;;;0.30;;
57565;SDS011;63999;43.882;-0.310;2024-03-23T10:50:26;5.00;;;0.30;;
57565;SDS011;63999;43.882;-0.310;2024-03-23T10:52:53;0.95;;;0.40;;
57565;SDS011;63999;43.882;-0.310;2024-03-23T10:55:22;0.98;;;0.22;;
57565;SDS011;63999;43.882;-0.310;2024-03-23T10:57:55;0.68;;;0.10;;
57565;SDS011;63999;43.882;-0.310;2024-03-23T11:00:24;0.52;;;0.30;;
57565;SDS011;63999;43.882;-0.310;2024-03-23T11:02:51;0.73;;;0.13;;
57565;SDS011;63999;43.882;-0.310;2024-03-23T11:07:54;0.43;;;0.17;;
57565;SDS011;63999;43.882;-0.310;2024-03-23T11:10:30;0.10;;;0.10;;
57565;SDS011;63999;43.882;-0.310;2024-03-23T11:12:57;0.40;;;0.20;;
57565;SDS011;63999;43.882;-0.310;2024-03-23T11:15:23;0.20;;;0.20;;
57565;SDS011;63999;43.882;-0.310;2024-03-23T11:18:02;0.77;;;0.10;;
57565;SDS011;63999;43.882;-0.310;2024-03-23T11:20:37;0.63;;;0.20;;
57565;SDS011;63999;43.882;-0.310;2024-03-23T11:23:04;2.50;;;0.22;;
57565;SDS011;63999;43.882;-0.310;2024-03-23T11:25:30;2.63;;;0.32;;
57565;SDS011;63999;43.882;-0.310;2024-03-23T11:27:57;0.17;;;0.10;;
57565;SDS011;63999;43.882;-0.310;2024-03-23T11:30:34;1.27;;;0.30;;
57565;SDS011;63999;43.882;-0.310;2024-03-23T11:33:00;0.00;;;0.00;;
57565;SDS011;63999;43.882;-0.310;2024-03-23T11:35:32;0.43;;;0.43;;
57565;SDS011;63999;43.882;-0.310;2024-03-23T11:38:03;3.17;;;0.30;;
57565;SDS011;63999;43.882;-0.310;2024-03-23T11:40:39;0.95;;;0.28;;
57565;SDS011;63999;43.882;-0.310;2024-03-23T11:43:11;0.52;;;0.28;;
57565;SDS011;63999;43.882;-0.310;2024-03-23T11:45:50;0.45;;;0.20;;
57565;SDS011;63999;43.882;-0.310;2024-03-23T11:48:22;0.30;;;0.10;;
57565;SDS011;63999;43.882;-0.310;2024-03-23T11:50:49;0.65;;;0.22;;
57565;SDS011;63999;43.882;-0.310;2024-03-23T11:53:23;0.85;;;0.20;;
57565;SDS011;63999;43.882;-0.310;2024-03-23T11:58:23;0.38;;;0.30;;
57565;SDS011;63999;43.882;-0.310;2024-03-23T12:01:02;0.55;;;0.20;;
57565;SDS011;63999;43.882;-0.310;2024-03-23T12:03:30;0.43;;;0.20;;
57565;SDS011;63999;43.882;-0.310;2024-03-23T12:05:58;1.10;;;0.22;;
57565;SDS011;63999;43.882;-0.310;2024-03-23T12:08:31;0.28;;;0.20;;
57565;SDS011;63999;43.882;-0.310;2024-03-23T12:13:34;0.30;;;0.20;;
57565;SDS011;63999;43.882;-0.310;2024-03-23T12:16:13;4.32;;;0.32;;
57565;SDS011;63999;43.882;-0.310;2024-03-23T12:18:42;0.10;;;0.10;;
57565;SDS011;63999;43.882;-0.310;2024-03-23T12:21:10;1.00;;;0.13;;
57565;SDS011;63999;43.882;-0.310;2024-03-23T12:23:38;0.90;;;0.17;;
57565;SDS011;63999;43.882;-0.310;2024-03-23T12:26:05;0.40;;;0.20;;
57565;SDS011;63999;43.882;-0.310;2024-03-23T12:28:32;0.30;;;0.30;;
57565;SDS011;63999;43.882;-0.310;2024-03-23T12:30:59;0.60;;;0.17;;
57565;SDS011;63999;43.882;-0.310;2024-03-23T12:33:25;3.33;;;0.20;;
57565;SDS011;63999;43.882;-0.310;2024-03-23T12:35:51;0.80;;;0.28;;
57565;SDS011;63999;43.882;-0.310;2024-03-23T12:38:18;0.10;;;0.10;;
57565;SDS011;63999;43.882;-0.310;2024-03-23T12:40:47;1.05;;;0.10;;
57565;SDS011;63999;43.882;-0.310;2024-03-23T12:43:16;0.15;;;0.10;;
57565;SDS011;63999;43.882;-0.310;2024-03-23T12:45:46;3.00;;;0.40;;
57565;SDS011;63999;43.882;-0.310;2024-03-23T12:48:13;2.10;;;0.20;;
57565;SDS011;63999;43.882;-0.310;2024-03-23T12:50:39;0.60;;;0.25;;
57565;SDS011;63999;43.882;-0.310;2024-03-23T12:53:05;5.53;;;0.22;;
57565;SDS011;63999;43.882;-0.310;2024-03-23T12:55:31;1.73;;;0.25;;
57565;SDS011;63999;43.882;-0.310;2024-03-23T12:57:58;2.40;;;0.50;;
57565;SDS011;63999;43.882;-0.310;2024-03-23T13:00:24;0.45;;;0.20;;
57565;SDS011;63999;43.882;-0.310;2024-03-23T13:02:50;0.30;;;0.10;;
57565;SDS011;63999;43.882;-0.310;2024-03-23T13:05:17;0.10;;;0.10;;
57565;SDS011;63999;43.882;-0.310;2024-03-23T13:07:43;0.20;;;0.20;;
57565;SDS011;63999;43.882;-0.310;2024-03-23T13:10:09;0.32;;;0.20;;
57565;SDS011;63999;43.882;-0.310;2024-03-23T13:12:35;4.38;;;0.60;;
57565;SDS011;63999;43.882;-0.310;2024-03-23T13:15:02;0.80;;;0.35;;
57565;SDS011;63999;43.882;-0.310;2024-03-23T13:17:28;6.60;;;0.75;;
57565;SDS011;63999;43.882;-0.310;2024-03-23T13:19:54;2.05;;;0.32;;
57565;SDS011;63999;43.882;-0.310;2024-03-23T13:22:21;0.47;;;0.20;;
57565;SDS011;63999;43.882;-0.310;2024-03-23T13:24:47;0.38;;;0.20;;
57565;SDS011;63999;43.882;-0.310;2024-03-23T13:27:13;3.25;;;0.57;;
57565;SDS011;63999;43.882;-0.310;2024-03-23T13:29:40;2.08;;;0.45;;
57565;SDS011;63999;43.882;-0.310;2024-03-23T13:32:06;3.55;;;0.40;;
57565;SDS011;63999;43.882;-0.310;2024-03-23T13:34:33;0.55;;;0.15;;
57565;SDS011;63999;43.882;-0.310;2024-03-23T13:37:00;1.45;;;0.30;;
57565;SDS011;63999;43.882;-0.310;2024-03-23T13:39:26;1.30;;;0.30;;
57565;SDS011;63999;43.882;-0.310;2024-03-23T13:41:53;1.60;;;0.25;;
57565;SDS011;63999;43.882;-0.310;2024-03-23T13:44:22;0.88;;;0.30;;
57565;SDS011;63999;43.882;-0.310;2024-03-23T13:46:48;1.35;;;0.10;;
57565;SDS011;63999;43.882;-0.310;2024-03-23T13:49:30;2.05;;;0.30;;
57565;SDS011;63999;43.882;-0.310;2024-03-23T13:51:59;0.77;;;0.40;;
57565;SDS011;63999;43.882;-0.310;2024-03-23T13:54:26;1.33;;;0.32;;
57565;SDS011;63999;43.882;-0.310;2024-03-23T13:56:53;0.70;;;0.40;;
57565;SDS011;63999;43.882;-0.310;2024-03-23T13:59:21;0.73;;;0.20;;
57565;SDS011;63999;43.882;-0.310;2024-03-23T14:01:51;0.70;;;0.30;;
57565;SDS011;63999;43.882;-0.310;2024-03-23T14:04:17;1.17;;;0.20;;
57565;SDS011;63999;43.882;-0.310;2024-03-23T14:06:46;1.45;;;0.25;;
57565;SDS011;63999;43.882;-0.310;2024-03-23T14:09:12;0.95;;;0.30;;
57565;SDS011;63999;43.882;-0.310;2024-03-23T14:11:40;0.50;;;0.17;;
57565;SDS011;63999;43.882;-0.310;2024-03-23T14:14:08;0.75;;;0.20;;
57565;SDS011;63999;43.882;-0.310;2024-03-23T14:16:35;2.78;;;0.40;;
57565;SDS011;63999;43.882;-0.310;2024-03-23T14:19:01;0.57;;;0.30;;
57565;SDS011;63999;43.882;-0.310;2024-03-23T14:21:28;3.78;;;0.32;;
57565;SDS011;63999;43.882;-0.310;2024-03-23T14:23:54;1.40;;;0.40;;
57565;SDS011;63999;43.882;-0.310;2024-03-23T14:26:21;1.45;;;0.30;;
57565;SDS011;63999;43.882;-0.310;2024-03-23T14:28:47;0.20;;;0.20;;
57565;SDS011;63999;43.882;-0.310;2024-03-23T14:31:14;0.20;;;0.20;;
57565;SDS011;63999;43.882;-0.310;2024-03-23T14:33:40;1.88;;;0.40;;
57565;SDS011;63999;43.882;-0.310;2024-03-23T14:36:12;0.85;;;0.30;;
57565;SDS011;63999;43.882;-0.310;2024-03-23T14:38:38;0.52;;;0.20;;
57565;SDS011;63999;43.882;-0.310;2024-03-23T14:41:05;0.03;;;0.03;;
57565;SDS011;63999;43.882;-0.310;2024-03-23T14:43:31;1.52;;;0.20;;
57565;SDS011;63999;43.882;-0.310;2024-03-23T14:46:16;1.00;;;0.30;;
57565;SDS011;63999;43.882;-0.310;2024-03-23T14:48:43;1.77;;;0.40;;
57565;SDS011;63999;43.882;-0.310;2024-03-23T14:51:10;0.30;;;0.30;;
57565;SDS011;63999;43.882;-0.310;2024-03-23T14:53:40;0.93;;;0.45;;
57565;SDS011;63999;43.882;-0.310;2024-03-23T14:56:07;2.15;;;0.20;;
57565;SDS011;63999;43.882;-0.310;2024-03-23T14:58:35;0.65;;;0.38;;
57565;SDS011;63999;43.882;-0.310;2024-03-23T15:01:05;0.38;;;0.20;;
57565;SDS011;63999;43.882;-0.310;2024-03-23T15:03:38;0.75;;;0.20;;
57565;SDS011;63999;43.882;-0.310;2024-03-23T15:06:05;1.10;;;0.20;;
57565;SDS011;63999;43.882;-0.310;2024-03-23T15:08:34;1.00;;;0.30;;
57565;SDS011;63999;43.882;-0.310;2024-03-23T15:11:02;2.42;;;0.40;;
57565;SDS011;63999;43.882;-0.310;2024-03-23T15:13:31;0.20;;;0.20;;
57565;SDS011;63999;43.882;-0.310;2024-03-23T15:15:58;0.28;;;0.10;;
57565;SDS011;63999;43.882;-0.310;2024-03-23T15:18:24;0.65;;;0.10;;
57565;SDS011;63999;43.882;-0.310;2024-03-23T15:21:01;0.68;;;0.32;;
57565;SDS011;63999;43.882;-0.310;2024-03-23T15:23:31;1.08;;;0.43;;
57565;SDS011;63999;43.882;-0.310;2024-03-23T15:26:01;0.90;;;0.50;;
57565;SDS011;63999;43.882;-0.310;2024-03-23T15:28:28;2.20;;;0.35;;
57565;SDS011;63999;43.882;-0.310;2024-03-23T15:31:28;0.98;;;0.28;;
57565;SDS011;63999;43.882;-0.310;2024-03-23T15:33:55;2.78;;;0.30;;
57565;SDS011;63999;43.882;-0.310;2024-03-23T15:36:21;3.90;;;0.40;;
57565;SDS011;63999;43.882;-0.310;2024-03-23T15:38:47;0.45;;;0.25;;
57565;SDS011;63999;43.882;-0.310;2024-03-23T15:41:14;0.63;;;0.45;;
57565;SDS011;63999;43.882;-0.310;2024-03-23T15:43:40;2.72;;;0.30;;
57565;SDS011;63999;43.882;-0.310;2024-03-23T15:46:07;0.25;;;0.20;;